sensor_id;sensor_type;location;lat;lon;timestamp;temperature;humidity
52034;DHT22;38045;52.988;6.536;2024-01-25T00:01:30;7.40;69.50
52034;DHT22;38045;52.988;6.536;2024-01-25T00:03:55;7.40;69.60
52034;DHT22;38045;52.988;6.536;2024-01-25T00:06:21;7.40;69.50
52034;DHT22;38045;52.988;6.536;2024-01-25T00:08:47;7.40;69.50
52034;DHT22;38045;52.988;6.536;2024-01-25T00:11:13;7.30;69.60
52034;DHT22;38045;52.988;6.536;2024-01-25T00:13:38;7.20;69.60
52034;DHT22;38045;52.988;6.536;2024-01-25T00:16:04;7.20;69.70
52034;DHT22;38045;52.988;6.536;2024-01-25T00:18:30;7.20;69.70
52034;DHT22;38045;52.988;6.536;2024-01-25T00:20:56;7.20;69.60
52034;DHT22;38045;52.988;6.536;2024-01-25T00:23:21;7.20;69.70
52034;DHT22;38045;52.988;6.536;2024-01-25T00:25:47;7.20;69.80
52034;DHT22;38045;52.988;6.536;2024-01-25T00:28:13;7.10;69.80
52034;DHT22;38045;52.988;6.536;2024-01-25T00:30:39;7.00;70.00
52034;DHT22;38045;52.988;6.536;2024-01-25T00:33:05;7.00;70.00
52034;DHT22;38045;52.988;6.536;2024-01-25T00:35:30;7.00;70.10
52034;DHT22;38045;52.988;6.536;2024-01-25T00:37:56;6.90;70.10
52034;DHT22;38045;52.988;6.536;2024-01-25T00:40:22;6.90;70.30
52034;DHT22;38045;52.988;6.536;2024-01-25T00:42:49;6.80;70.50
52034;DHT22;38045;52.988;6.536;2024-01-25T00:45:19;6.80;70.50
52034;DHT22;38045;52.988;6.536;2024-01-25T00:47:45;6.80;70.40
52034;DHT22;38045;52.988;6.536;2024-01-25T00:50:12;6.70;70.80
52034;DHT22;38045;52.988;6.536;2024-01-25T00:52:38;6.70;70.80
52034;DHT22;38045;52.988;6.536;2024-01-25T00:55:04;6.70;70.60
52034;DHT22;38045;52.988;6.536;2024-01-25T00:57:30;6.60;71.00
52034;DHT22;38045;52.988;6.536;2024-01-25T00:59:58;6.60;70.70
52034;DHT22;38045;52.988;6.536;2024-01-25T01:02:24;6.60;71.20
52034;DHT22;38045;52.988;6.536;2024-01-25T01:04:51;6.50;71.20
52034;DHT22;38045;52.988;6.536;2024-01-25T01:07:17;6.50;71.20
52034;DHT22;38045;52.988;6.536;2024-01-25T01:09:43;6.50;70.90
52034;DHT22;38045;52.988;6.536;2024-01-25T01:12:08;6.50;71.30
52034;DHT22;38045;52.988;6.536;2024-01-25T01:14:34;6.40;71.60
52034;DHT22;38045;52.988;6.536;2024-01-25T01:17:00;6.40;71.60
52034;DHT22;38045;52.988;6.536;2024-01-25T01:19:25;6.40;71.70
52034;DHT22;38045;52.988;6.536;2024-01-25T01:21:51;6.30;71.60
52034;DHT22;38045;52.988;6.536;2024-01-25T01:24:16;6.30;72.20
52034;DHT22;38045;52.988;6.536;2024-01-25T01:26:42;6.20;72.50
52034;DHT22;38045;52.988;6.536;2024-01-25T01:29:07;6.20;72.50
52034;DHT22;38045;52.988;6.536;2024-01-25T01:31:33;6.20;72.20
52034;DHT22;38045;52.988;6.536;2024-01-25T01:33:59;6.20;72.10
52034;DHT22;38045;52.988;6.536;2024-01-25T01:36:26;6.10;72.20
52034;DHT22;38045;52.988;6.536;2024-01-25T01:38:51;6.10;72.20
52034;DHT22;38045;52.988;6.536;2024-01-25T01:41:17;6.10;72.40
52034;DHT22;38045;52.988;6.536;2024-01-25T01:43:42;6.10;72.30
52034;DHT22;38045;52.988;6.536;2024-01-25T01:46:15;6.00;73.20
52034;DHT22;38045;52.988;6.536;2024-01-25T01:48:44;6.00;72.90
52034;DHT22;38045;52.988;6.536;2024-01-25T01:51:10;6.00;73.20
52034;DHT22;38045;52.988;6.536;2024-01-25T01:53:36;6.00;72.80
52034;DHT22;38045;52.988;6.536;2024-01-25T01:56:02;5.90;73.20
52034;DHT22;38045;52.988;6.536;2024-01-25T01:58:28;5.90;73.50
52034;DHT22;38045;52.988;6.536;2024-01-25T02:00:56;5.90;72.60
52034;DHT22;38045;52.988;6.536;2024-01-25T02:03:22;5.90;73.40
52034;DHT22;38045;52.988;6.536;2024-01-25T02:05:48;5.90;73.00
52034;DHT22;38045;52.988;6.536;2024-01-25T02:08:14;5.80;73.00
52034;DHT22;38045;52.988;6.536;2024-01-25T02:10:40;5.90;73.50
52034;DHT22;38045;52.988;6.536;2024-01-25T02:13:06;5.80;73.70
52034;DHT22;38045;52.988;6.536;2024-01-25T02:15:31;5.80;73.60
52034;DHT22;38045;52.988;6.536;2024-01-25T02:17:57;5.80;73.40
52034;DHT22;38045;52.988;6.536;2024-01-25T02:20:22;5.80;73.80
52034;DHT22;38045;52.988;6.536;2024-01-25T02:22:48;5.80;73.40
52034;DHT22;38045;52.988;6.536;2024-01-25T02:25:14;5.70;73.40
52034;DHT22;38045;52.988;6.536;2024-01-25T02:27:39;5.70;73.10
52034;DHT22;38045;52.988;6.536;2024-01-25T02:30:06;5.70;73.80
52034;DHT22;38045;52.988;6.536;2024-01-25T02:32:32;5.70;73.70
52034;DHT22;38045;52.988;6.536;2024-01-25T02:34:58;5.60;73.90
52034;DHT22;38045;52.988;6.536;2024-01-25T02:37:23;5.60;73.90
52034;DHT22;38045;52.988;6.536;2024-01-25T02:39:50;5.70;73.90
52034;DHT22;38045;52.988;6.536;2024-01-25T02:42:15;5.70;74.30
52034;DHT22;38045;52.988;6.536;2024-01-25T02:44:42;5.70;74.00
52034;DHT22;38045;52.988;6.536;2024-01-25T02:47:08;5.60;74.40
52034;DHT22;38045;52.988;6.536;2024-01-25T02:49:34;5.60;74.30
52034;DHT22;38045;52.988;6.536;2024-01-25T02:52:00;5.60;74.20
52034;DHT22;38045;52.988;6.536;2024-01-25T02:54:25;5.60;74.60
52034;DHT22;38045;52.988;6.536;2024-01-25T02:56:51;5.60;74.70
52034;DHT22;38045;52.988;6.536;2024-01-25T02:59:17;5.50;74.40
52034;DHT22;38045;52.988;6.536;2024-01-25T03:01:43;5.50;74.30
52034;DHT22;38045;52.988;6.536;2024-01-25T03:04:09;5.50;74.30
52034;DHT22;38045;52.988;6.536;2024-01-25T03:06:34;5.50;74.30
52034;DHT22;38045;52.988;6.536;2024-01-25T03:09:00;5.50;74.00
52034;DHT22;38045;52.988;6.536;2024-01-25T03:11:26;5.50;74.60
52034;DHT22;38045;52.988;6.536;2024-01-25T03:13:51;5.50;74.90
52034;DHT22;38045;52.988;6.536;2024-01-25T03:16:17;5.50;74.40
52034;DHT22;38045;52.988;6.536;2024-01-25T03:18:42;5.50;74.50
52034;DHT22;38045;52.988;6.536;2024-01-25T03:21:08;5.50;74.40
52034;DHT22;38045;52.988;6.536;2024-01-25T03:23:33;5.50;74.40
52034;DHT22;38045;52.988;6.536;2024-01-25T03:26:01;5.50;75.10
52034;DHT22;38045;52.988;6.536;2024-01-25T03:28:27;5.50;74.70
52034;DHT22;38045;52.988;6.536;2024-01-25T03:30:53;5.50;75.10
52034;DHT22;38045;52.988;6.536;2024-01-25T03:33:18;5.50;75.20
52034;DHT22;38045;52.988;6.536;2024-01-25T03:35:44;5.50;75.30
52034;DHT22;38045;52.988;6.536;2024-01-25T03:38:09;5.50;75.30
52034;DHT22;38045;52.988;6.536;2024-01-25T03:40:35;5.40;75.50
52034;DHT22;38045;52.988;6.536;2024-01-25T03:43:00;5.40;75.50
52034;DHT22;38045;52.988;6.536;2024-01-25T03:45:26;5.40;75.20
52034;DHT22;38045;52.988;6.536;2024-01-25T03:47:52;5.40;75.60
52034;DHT22;38045;52.988;6.536;2024-01-25T03:50:17;5.40;75.20
52034;DHT22;38045;52.988;6.536;2024-01-25T03:52:43;5.30;75.20
52034;DHT22;38045;52.988;6.536;2024-01-25T03:55:08;5.30;75.10
52034;DHT22;38045;52.988;6.536;2024-01-25T03:57:34;5.30;75.50
52034;DHT22;38045;52.988;6.536;2024-01-25T03:59:59;5.30;75.70
52034;DHT22;38045;52.988;6.536;2024-01-25T04:02:25;5.30;75.50
52034;DHT22;38045;52.988;6.536;2024-01-25T04:04:51;5.30;75.50
52034;DHT22;38045;52.988;6.536;2024-01-25T04:07:16;5.30;75.40
52034;DHT22;38045;52.988;6.536;2024-01-25T04:09:42;5.30;75.50
52034;DHT22;38045;52.988;6.536;2024-01-25T04:12:07;5.30;75.60
52034;DHT22;38045;52.988;6.536;2024-01-25T04:14:33;5.30;75.80
52034;DHT22;38045;52.988;6.536;2024-01-25T04:16:58;5.30;75.40
52034;DHT22;38045;52.988;6.536;2024-01-25T04:19:24;5.30;75.90
52034;DHT22;38045;52.988;6.536;2024-01-25T04:21:50;5.30;75.80
52034;DHT22;38045;52.988;6.536;2024-01-25T04:24:15;5.30;75.60
52034;DHT22;38045;52.988;6.536;2024-01-25T04:26:41;5.20;75.70
52034;DHT22;38045;52.988;6.536;2024-01-25T04:29:06;5.30;76.00
52034;DHT22;38045;52.988;6.536;2024-01-25T04:31:32;5.30;75.50
52034;DHT22;38045;52.988;6.536;2024-01-25T04:33:57;5.30;75.90
52034;DHT22;38045;52.988;6.536;2024-01-25T04:36:23;5.20;76.20
52034;DHT22;38045;52.988;6.536;2024-01-25T04:38:49;5.20;75.80
52034;DHT22;38045;52.988;6.536;2024-01-25T04:41:14;5.20;75.30
52034;DHT22;38045;52.988;6.536;2024-01-25T04:43:40;5.20;75.80
52034;DHT22;38045;52.988;6.536;2024-01-25T04:46:05;5.10;76.00
52034;DHT22;38045;52.988;6.536;2024-01-25T04:48:32;5.10;75.90
52034;DHT22;38045;52.988;6.536;2024-01-25T04:50:57;5.10;75.70
52034;DHT22;38045;52.988;6.536;2024-01-25T04:53:26;5.10;75.40
52034;DHT22;38045;52.988;6.536;2024-01-25T04:55:54;5.10;75.60
52034;DHT22;38045;52.988;6.536;2024-01-25T04:58:19;5.10;75.30
52034;DHT22;38045;52.988;6.536;2024-01-25T05:00:45;5.10;75.20
52034;DHT22;38045;52.988;6.536;2024-01-25T05:03:10;5.00;75.10
52034;DHT22;38045;52.988;6.536;2024-01-25T05:05:36;5.00;74.90
52034;DHT22;38045;52.988;6.536;2024-01-25T05:08:01;5.00;74.90
52034;DHT22;38045;52.988;6.536;2024-01-25T05:10:27;4.90;75.40
52034;DHT22;38045;52.988;6.536;2024-01-25T05:12:53;4.80;75.90
52034;DHT22;38045;52.988;6.536;2024-01-25T05:15:18;4.70;75.90
52034;DHT22;38045;52.988;6.536;2024-01-25T05:17:44;4.70;76.00
52034;DHT22;38045;52.988;6.536;2024-01-25T05:20:10;4.70;75.60
52034;DHT22;38045;52.988;6.536;2024-01-25T05:22:35;4.70;76.20
52034;DHT22;38045;52.988;6.536;2024-01-25T05:25:06;4.70;76.10
52034;DHT22;38045;52.988;6.536;2024-01-25T05:27:33;4.70;76.10
52034;DHT22;38045;52.988;6.536;2024-01-25T05:29:59;4.60;76.10
52034;DHT22;38045;52.988;6.536;2024-01-25T05:32:24;4.50;75.70
52034;DHT22;38045;52.988;6.536;2024-01-25T05:34:50;4.50;75.80
52034;DHT22;38045;52.988;6.536;2024-01-25T05:37:15;4.50;76.20
52034;DHT22;38045;52.988;6.536;2024-01-25T05:39:41;4.50;76.50
52034;DHT22;38045;52.988;6.536;2024-01-25T05:42:07;4.50;76.60
52034;DHT22;38045;52.988;6.536;2024-01-25T05:44:34;4.50;76.20
52034;DHT22;38045;52.988;6.536;2024-01-25T05:46:59;4.50;75.90
52034;DHT22;38045;52.988;6.536;2024-01-25T05:49:25;4.40;76.40
52034;DHT22;38045;52.988;6.536;2024-01-25T05:51:51;4.40;76.20
52034;DHT22;38045;52.988;6.536;2024-01-25T05:54:17;4.40;76.50
52034;DHT22;38045;52.988;6.536;2024-01-25T05:56:42;4.40;76.70
52034;DHT22;38045;52.988;6.536;2024-01-25T05:59:08;4.30;77.00
52034;DHT22;38045;52.988;6.536;2024-01-25T06:01:33;4.30;77.00
52034;DHT22;38045;52.988;6.536;2024-01-25T06:03:59;4.30;77.00
52034;DHT22;38045;52.988;6.536;2024-01-25T06:06:24;4.30;76.80
52034;DHT22;38045;52.988;6.536;2024-01-25T06:08:50;4.30;76.90
52034;DHT22;38045;52.988;6.536;2024-01-25T06:11:15;4.30;76.90
52034;DHT22;38045;52.988;6.536;2024-01-25T06:13:41;4.40;76.70
52034;DHT22;38045;52.988;6.536;2024-01-25T06:16:07;4.30;76.20
52034;DHT22;38045;52.988;6.536;2024-01-25T06:18:33;4.40;76.80
52034;DHT22;38045;52.988;6.536;2024-01-25T06:20:59;4.30;76.80
52034;DHT22;38045;52.988;6.536;2024-01-25T06:23:24;4.30;77.30
52034;DHT22;38045;52.988;6.536;2024-01-25T06:25:50;4.30;76.90
52034;DHT22;38045;52.988;6.536;2024-01-25T06:28:15;4.30;77.40
52034;DHT22;38045;52.988;6.536;2024-01-25T06:30:41;4.30;76.80
52034;DHT22;38045;52.988;6.536;2024-01-25T06:33:06;4.30;77.00
52034;DHT22;38045;52.988;6.536;2024-01-25T06:35:33;4.20;76.80
52034;DHT22;38045;52.988;6.536;2024-01-25T06:37:59;4.20;76.80
52034;DHT22;38045;52.988;6.536;2024-01-25T06:40:24;4.20;77.30
52034;DHT22;38045;52.988;6.536;2024-01-25T06:42:50;4.10;77.50
52034;DHT22;38045;52.988;6.536;2024-01-25T06:45:16;4.10;77.30
52034;DHT22;38045;52.988;6.536;2024-01-25T06:47:42;4.10;77.00
52034;DHT22;38045;52.988;6.536;2024-01-25T06:50:08;4.10;76.70
52034;DHT22;38045;52.988;6.536;2024-01-25T06:52:34;4.10;76.90
52034;DHT22;38045;52.988;6.536;2024-01-25T06:55:00;4.10;76.90
52034;DHT22;38045;52.988;6.536;2024-01-25T06:57:26;4.10;76.80
52034;DHT22;38045;52.988;6.536;2024-01-25T06:59:51;4.10;76.60
52034;DHT22;38045;52.988;6.536;2024-01-25T07:02:17;4.00;77.10
52034;DHT22;38045;52.988;6.536;2024-01-25T07:04:42;4.00;76.80
52034;DHT22;38045;52.988;6.536;2024-01-25T07:07:09;4.00;76.90
52034;DHT22;38045;52.988;6.536;2024-01-25T07:09:34;3.90;76.80
52034;DHT22;38045;52.988;6.536;2024-01-25T07:12:00;3.90;76.80
52034;DHT22;38045;52.988;6.536;2024-01-25T07:14:25;3.90;76.80
52034;DHT22;38045;52.988;6.536;2024-01-25T07:16:51;3.90;77.20
52034;DHT22;38045;52.988;6.536;2024-01-25T07:19:17;3.90;76.90
52034;DHT22;38045;52.988;6.536;2024-01-25T07:21:42;3.80;76.70
52034;DHT22;38045;52.988;6.536;2024-01-25T07:24:11;3.80;76.80
52034;DHT22;38045;52.988;6.536;2024-01-25T07:26:36;3.70;77.10
52034;DHT22;38045;52.988;6.536;2024-01-25T07:29:03;3.70;77.20
52034;DHT22;38045;52.988;6.536;2024-01-25T07:31:28;3.70;77.30
52034;DHT22;38045;52.988;6.536;2024-01-25T07:33:54;3.60;77.20
52034;DHT22;38045;52.988;6.536;2024-01-25T07:36:20;3.60;77.50
52034;DHT22;38045;52.988;6.536;2024-01-25T07:38:46;3.60;77.10
52034;DHT22;38045;52.988;6.536;2024-01-25T07:41:13;3.70;77.70
52034;DHT22;38045;52.988;6.536;2024-01-25T07:43:38;3.70;77.80
52034;DHT22;38045;52.988;6.536;2024-01-25T07:46:04;3.70;77.80
52034;DHT22;38045;52.988;6.536;2024-01-25T07:48:29;3.70;77.80
52034;DHT22;38045;52.988;6.536;2024-01-25T07:50:56;3.70;77.80
52034;DHT22;38045;52.988;6.536;2024-01-25T07:53:21;3.80;77.90
52034;DHT22;38045;52.988;6.536;2024-01-25T07:55:47;3.80;77.80
52034;DHT22;38045;52.988;6.536;2024-01-25T07:58:15;3.90;78.10
52034;DHT22;38045;52.988;6.536;2024-01-25T08:00:40;3.90;77.90
52034;DHT22;38045;52.988;6.536;2024-01-25T08:03:06;3.90;77.80
52034;DHT22;38045;52.988;6.536;2024-01-25T08:05:31;3.90;78.00
52034;DHT22;38045;52.988;6.536;2024-01-25T08:07:57;3.90;77.80
52034;DHT22;38045;52.988;6.536;2024-01-25T08:10:22;4.00;77.70
52034;DHT22;38045;52.988;6.536;2024-01-25T08:12:48;4.00;77.90
52034;DHT22;38045;52.988;6.536;2024-01-25T08:15:14;4.10;78.00
52034;DHT22;38045;52.988;6.536;2024-01-25T08:17:39;4.10;77.80
52034;DHT22;38045;52.988;6.536;2024-01-25T08:20:06;4.10;78.40
52034;DHT22;38045;52.988;6.536;2024-01-25T08:22:32;4.20;78.10
52034;DHT22;38045;52.988;6.536;2024-01-25T08:24:58;4.20;78.30
52034;DHT22;38045;52.988;6.536;2024-01-25T08:27:24;4.30;78.40
52034;DHT22;38045;52.988;6.536;2024-01-25T08:29:50;4.30;78.10
52034;DHT22;38045;52.988;6.536;2024-01-25T08:32:16;4.30;78.40
52034;DHT22;38045;52.988;6.536;2024-01-25T08:34:41;4.40;78.50
52034;DHT22;38045;52.988;6.536;2024-01-25T08:37:07;4.40;78.30
52034;DHT22;38045;52.988;6.536;2024-01-25T08:39:33;4.40;78.20
52034;DHT22;38045;52.988;6.536;2024-01-25T08:41:58;4.50;78.40
52034;DHT22;38045;52.988;6.536;2024-01-25T08:44:27;4.50;78.10
52034;DHT22;38045;52.988;6.536;2024-01-25T08:46:53;4.50;78.30
52034;DHT22;38045;52.988;6.536;2024-01-25T08:49:19;4.50;78.30
52034;DHT22;38045;52.988;6.536;2024-01-25T08:51:44;4.50;78.20
52034;DHT22;38045;52.988;6.536;2024-01-25T08:54:10;4.50;78.10
52034;DHT22;38045;52.988;6.536;2024-01-25T08:56:35;4.50;78.20
52034;DHT22;38045;52.988;6.536;2024-01-25T08:59:01;4.60;78.40
52034;DHT22;38045;52.988;6.536;2024-01-25T09:01:27;4.60;78.40
52034;DHT22;38045;52.988;6.536;2024-01-25T09:03:52;4.70;78.40
52034;DHT22;38045;52.988;6.536;2024-01-25T09:06:18;4.70;78.30
52034;DHT22;38045;52.988;6.536;2024-01-25T09:08:44;4.70;78.30
52034;DHT22;38045;52.988;6.536;2024-01-25T09:11:09;4.70;78.20
52034;DHT22;38045;52.988;6.536;2024-01-25T09:13:35;4.70;78.30
52034;DHT22;38045;52.988;6.536;2024-01-25T09:16:00;4.70;78.20
52034;DHT22;38045;52.988;6.536;2024-01-25T09:18:26;4.80;78.10
52034;DHT22;38045;52.988;6.536;2024-01-25T09:20:52;4.80;78.10
52034;DHT22;38045;52.988;6.536;2024-01-25T09:23:17;4.90;78.10
52034;DHT22;38045;52.988;6.536;2024-01-25T09:25:46;4.90;78.10
52034;DHT22;38045;52.988;6.536;2024-01-25T09:28:12;4.90;78.20
52034;DHT22;38045;52.988;6.536;2024-01-25T09:30:38;5.00;78.10
52034;DHT22;38045;52.988;6.536;2024-01-25T09:33:05;5.00;78.10
52034;DHT22;38045;52.988;6.536;2024-01-25T09:35:31;5.00;78.10
52034;DHT22;38045;52.988;6.536;2024-01-25T09:37:56;5.00;78.10
52034;DHT22;38045;52.988;6.536;2024-01-25T09:40:22;5.10;78.10
52034;DHT22;38045;52.988;6.536;2024-01-25T09:42:48;5.10;78.10
52034;DHT22;38045;52.988;6.536;2024-01-25T09:45:16;5.10;78.00
52034;DHT22;38045;52.988;6.536;2024-01-25T09:47:43;5.10;78.10
52034;DHT22;38045;52.988;6.536;2024-01-25T09:50:09;5.20;78.00
52034;DHT22;38045;52.988;6.536;2024-01-25T09:52:35;5.20;78.00
52034;DHT22;38045;52.988;6.536;2024-01-25T09:55:01;5.30;77.90
52034;DHT22;38045;52.988;6.536;2024-01-25T09:57:28;5.30;77.90
52034;DHT22;38045;52.988;6.536;2024-01-25T09:59:55;5.30;77.90
52034;DHT22;38045;52.988;6.536;2024-01-25T10:02:21;5.40;77.90
52034;DHT22;38045;52.988;6.536;2024-01-25T10:04:50;5.50;77.90
52034;DHT22;38045;52.988;6.536;2024-01-25T10:07:38;5.50;77.80
52034;DHT22;38045;52.988;6.536;2024-01-25T10:10:04;5.60;77.70
52034;DHT22;38045;52.988;6.536;2024-01-25T10:12:31;5.60;77.50
52034;DHT22;38045;52.988;6.536;2024-01-25T10:14:57;5.70;77.40
52034;DHT22;38045;52.988;6.536;2024-01-25T10:17:22;5.60;77.30
52034;DHT22;38045;52.988;6.536;2024-01-25T10:19:48;5.60;77.40
52034;DHT22;38045;52.988;6.536;2024-01-25T10:22:14;5.50;77.50
52034;DHT22;38045;52.988;6.536;2024-01-25T10:24:40;5.60;77.50
52034;DHT22;38045;52.988;6.536;2024-01-25T10:27:07;5.60;77.60
52034;DHT22;38045;52.988;6.536;2024-01-25T10:29:36;5.70;77.70
52034;DHT22;38045;52.988;6.536;2024-01-25T10:32:02;5.80;77.30
52034;DHT22;38045;52.988;6.536;2024-01-25T10:34:28;5.80;77.40
52034;DHT22;38045;52.988;6.536;2024-01-25T10:36:55;5.90;77.30
52034;DHT22;38045;52.988;6.536;2024-01-25T10:39:21;6.00;77.10
52034;DHT22;38045;52.988;6.536;2024-01-25T10:41:47;6.10;76.70
52034;DHT22;38045;52.988;6.536;2024-01-25T10:44:19;6.20;76.80
52034;DHT22;38045;52.988;6.536;2024-01-25T10:46:50;6.20;76.50
52034;DHT22;38045;52.988;6.536;2024-01-25T10:49:17;6.30;76.50
52034;DHT22;38045;52.988;6.536;2024-01-25T10:51:44;6.40;76.50
52034;DHT22;38045;52.988;6.536;2024-01-25T10:54:11;6.40;76.60
52034;DHT22;38045;52.988;6.536;2024-01-25T10:56:46;6.50;76.50
52034;DHT22;38045;52.988;6.536;2024-01-25T10:59:16;6.50;76.20
52034;DHT22;38045;52.988;6.536;2024-01-25T11:01:44;6.50;75.50
52034;DHT22;38045;52.988;6.536;2024-01-25T11:04:17;6.50;75.60
52034;DHT22;38045;52.988;6.536;2024-01-25T11:06:45;6.50;75.70
52034;DHT22;38045;52.988;6.536;2024-01-25T11:09:17;6.60;75.70
52034;DHT22;38045;52.988;6.536;2024-01-25T11:11:46;6.70;75.50
52034;DHT22;38045;52.988;6.536;2024-01-25T11:14:13;6.80;75.70
52034;DHT22;38045;52.988;6.536;2024-01-25T11:16:39;6.80;75.00
52034;DHT22;38045;52.988;6.536;2024-01-25T11:19:16;6.80;74.90
52034;DHT22;38045;52.988;6.536;2024-01-25T11:21:43;6.90;75.40
52034;DHT22;38045;52.988;6.536;2024-01-25T11:24:16;7.00;75.50
52034;DHT22;38045;52.988;6.536;2024-01-25T11:26:43;7.20;75.50
52034;DHT22;38045;52.988;6.536;2024-01-25T11:29:10;7.20;73.90
52034;DHT22;38045;52.988;6.536;2024-01-25T11:31:35;7.20;74.70
52034;DHT22;38045;52.988;6.536;2024-01-25T11:34:02;7.20;74.70
52034;DHT22;38045;52.988;6.536;2024-01-25T11:36:28;7.10;74.20
52034;DHT22;38045;52.988;6.536;2024-01-25T11:38:54;7.00;74.30
52034;DHT22;38045;52.988;6.536;2024-01-25T11:41:20;7.00;74.20
52034;DHT22;38045;52.988;6.536;2024-01-25T11:43:49;7.00;74.80
52034;DHT22;38045;52.988;6.536;2024-01-25T11:46:15;7.00;74.80
52034;DHT22;38045;52.988;6.536;2024-01-25T11:48:41;7.00;74.60
52034;DHT22;38045;52.988;6.536;2024-01-25T11:51:09;7.00;74.30
52034;DHT22;38045;52.988;6.536;2024-01-25T11:53:36;7.00;74.10
52034;DHT22;38045;52.988;6.536;2024-01-25T11:56:02;7.00;74.20
52034;DHT22;38045;52.988;6.536;2024-01-25T11:58:28;7.00;74.00
52034;DHT22;38045;52.988;6.536;2024-01-25T12:00:54;7.00;74.10
52034;DHT22;38045;52.988;6.536;2024-01-25T12:03:20;7.00;73.90
52034;DHT22;38045;52.988;6.536;2024-01-25T12:05:46;7.00;74.00
52034;DHT22;38045;52.988;6.536;2024-01-25T12:08:13;7.00;74.00
52034;DHT22;38045;52.988;6.536;2024-01-25T12:10:39;7.00;74.30
52034;DHT22;38045;52.988;6.536;2024-01-25T12:13:07;7.00;74.10
52034;DHT22;38045;52.988;6.536;2024-01-25T12:15:33;7.00;74.10
52034;DHT22;38045;52.988;6.536;2024-01-25T12:17:59;7.00;73.90
52034;DHT22;38045;52.988;6.536;2024-01-25T12:20:26;7.00;74.10
52034;DHT22;38045;52.988;6.536;2024-01-25T12:22:52;7.00;73.90
52034;DHT22;38045;52.988;6.536;2024-01-25T12:25:17;7.10;73.90
52034;DHT22;38045;52.988;6.536;2024-01-25T12:27:43;7.20;73.80
52034;DHT22;38045;52.988;6.536;2024-01-25T12:30:12;7.30;74.00
52034;DHT22;38045;52.988;6.536;2024-01-25T12:32:38;7.40;74.00
52034;DHT22;38045;52.988;6.536;2024-01-25T12:35:04;7.50;74.20
52034;DHT22;38045;52.988;6.536;2024-01-25T12:37:30;7.70;73.50
52034;DHT22;38045;52.988;6.536;2024-01-25T12:39:55;7.80;73.20
52034;DHT22;38045;52.988;6.536;2024-01-25T12:42:22;7.80;72.60
52034;DHT22;38045;52.988;6.536;2024-01-25T12:44:48;7.80;72.80
52034;DHT22;38045;52.988;6.536;2024-01-25T12:47:14;7.80;72.50
52034;DHT22;38045;52.988;6.536;2024-01-25T12:49:40;7.70;72.60
52034;DHT22;38045;52.988;6.536;2024-01-25T12:52:10;7.60;72.70
52034;DHT22;38045;52.988;6.536;2024-01-25T12:54:36;7.60;72.70
52034;DHT22;38045;52.988;6.536;2024-01-25T12:57:02;7.60;72.70
52034;DHT22;38045;52.988;6.536;2024-01-25T12:59:28;7.60;72.50
52034;DHT22;38045;52.988;6.536;2024-01-25T13:01:53;7.60;72.70
52034;DHT22;38045;52.988;6.536;2024-01-25T13:04:19;7.60;71.90
52034;DHT22;38045;52.988;6.536;2024-01-25T13:06:46;7.50;72.50
52034;DHT22;38045;52.988;6.536;2024-01-25T13:09:12;7.50;72.50
52034;DHT22;38045;52.988;6.536;2024-01-25T13:11:38;7.50;72.10
52034;DHT22;38045;52.988;6.536;2024-01-25T13:14:03;7.50;72.30
52034;DHT22;38045;52.988;6.536;2024-01-25T13:16:29;7.50;72.50
52034;DHT22;38045;52.988;6.536;2024-01-25T13:18:55;7.50;72.10
52034;DHT22;38045;52.988;6.536;2024-01-25T13:21:20;7.40;72.40
52034;DHT22;38045;52.988;6.536;2024-01-25T13:23:46;7.40;72.10
52034;DHT22;38045;52.988;6.536;2024-01-25T13:26:12;7.40;72.30
52034;DHT22;38045;52.988;6.536;2024-01-25T13:28:37;7.40;72.10
52034;DHT22;38045;52.988;6.536;2024-01-25T13:31:03;7.40;72.20
52034;DHT22;38045;52.988;6.536;2024-01-25T13:33:28;7.50;72.20
52034;DHT22;38045;52.988;6.536;2024-01-25T13:35:54;7.50;72.30
52034;DHT22;38045;52.988;6.536;2024-01-25T13:38:19;7.50;72.40
52034;DHT22;38045;52.988;6.536;2024-01-25T13:40:45;7.50;72.00
52034;DHT22;38045;52.988;6.536;2024-01-25T13:43:11;7.50;72.40
52034;DHT22;38045;52.988;6.536;2024-01-25T13:45:36;7.50;72.40
52034;DHT22;38045;52.988;6.536;2024-01-25T13:48:02;7.50;72.50
52034;DHT22;38045;52.988;6.536;2024-01-25T13:50:28;7.50;72.40
52034;DHT22;38045;52.988;6.536;2024-01-25T13:52:53;7.60;72.50
52034;DHT22;38045;52.988;6.536;2024-01-25T13:55:19;7.60;72.80
52034;DHT22;38045;52.988;6.536;2024-01-25T13:57:45;7.60;72.30
52034;DHT22;38045;52.988;6.536;2024-01-25T14:00:11;7.70;72.10
52034;DHT22;38045;52.988;6.536;2024-01-25T14:02:36;7.80;71.60
52034;DHT22;38045;52.988;6.536;2024-01-25T14:05:04;7.80;71.50
52034;DHT22;38045;52.988;6.536;2024-01-25T14:07:30;7.80;71.70
52034;DHT22;38045;52.988;6.536;2024-01-25T14:09:55;7.80;71.50
52034;DHT22;38045;52.988;6.536;2024-01-25T14:12:21;7.80;71.10
52034;DHT22;38045;52.988;6.536;2024-01-25T14:14:46;7.90;70.50
52034;DHT22;38045;52.988;6.536;2024-01-25T14:17:12;7.90;70.70
52034;DHT22;38045;52.988;6.536;2024-01-25T14:19:38;8.00;71.00
52034;DHT22;38045;52.988;6.536;2024-01-25T14:22:04;8.00;71.50
52034;DHT22;38045;52.988;6.536;2024-01-25T14:24:30;8.00;71.10
52034;DHT22;38045;52.988;6.536;2024-01-25T14:26:55;8.00;70.80
52034;DHT22;38045;52.988;6.536;2024-01-25T14:29:21;8.00;71.40
52034;DHT22;38045;52.988;6.536;2024-01-25T14:31:46;8.00;71.20
52034;DHT22;38045;52.988;6.536;2024-01-25T14:34:12;7.90;71.00
52034;DHT22;38045;52.988;6.536;2024-01-25T14:36:38;7.90;71.20
52034;DHT22;38045;52.988;6.536;2024-01-25T14:39:03;7.80;71.10
52034;DHT22;38045;52.988;6.536;2024-01-25T14:41:30;7.80;71.20
52034;DHT22;38045;52.988;6.536;2024-01-25T14:43:56;7.80;71.40
52034;DHT22;38045;52.988;6.536;2024-01-25T14:46:24;7.70;71.50
52034;DHT22;38045;52.988;6.536;2024-01-25T14:48:50;7.60;71.00
52034;DHT22;38045;52.988;6.536;2024-01-25T14:51:15;7.60;71.60
52034;DHT22;38045;52.988;6.536;2024-01-25T14:53:41;7.50;71.20
52034;DHT22;38045;52.988;6.536;2024-01-25T14:56:07;7.50;71.40
52034;DHT22;38045;52.988;6.536;2024-01-25T14:58:34;7.50;71.50
52034;DHT22;38045;52.988;6.536;2024-01-25T15:01:00;7.50;70.70
52034;DHT22;38045;52.988;6.536;2024-01-25T15:03:25;7.50;71.20
52034;DHT22;38045;52.988;6.536;2024-01-25T15:05:51;7.50;70.90
52034;DHT22;38045;52.988;6.536;2024-01-25T15:08:16;7.40;70.70
52034;DHT22;38045;52.988;6.536;2024-01-25T15:10:42;7.40;70.70
52034;DHT22;38045;52.988;6.536;2024-01-25T15:13:07;7.30;70.50
52034;DHT22;38045;52.988;6.536;2024-01-25T15:15:34;7.20;70.80
52034;DHT22;38045;52.988;6.536;2024-01-25T15:18:00;7.20;71.00
52034;DHT22;38045;52.988;6.536;2024-01-25T15:20:28;7.20;71.10
52034;DHT22;38045;52.988;6.536;2024-01-25T15:22:54;7.20;71.10
52034;DHT22;38045;52.988;6.536;2024-01-25T15:25:23;7.10;71.30
52034;DHT22;38045;52.988;6.536;2024-01-25T15:27:50;7.10;71.30
52034;DHT22;38045;52.988;6.536;2024-01-25T15:30:16;7.00;71.50
52034;DHT22;38045;52.988;6.536;2024-01-25T15:32:42;7.00;71.50
52034;DHT22;38045;52.988;6.536;2024-01-25T15:35:08;7.00;71.40
52034;DHT22;38045;52.988;6.536;2024-01-25T15:37:34;7.00;71.50